createdAt,value
2019-02-24T00:00:36.806Z,98.80
2019-02-24T00:03:05.360Z,98.90
2019-02-24T00:05:34.004Z,99.00
2019-02-24T00:08:02.549Z,98.80
2019-02-24T00:10:31.172Z,98.90
2019-02-24T00:12:59.897Z,98.50
2019-02-24T00:15:28.445Z,98.70
2019-02-24T00:17:56.993Z,98.90
2019-02-24T00:20:25.489Z,98.90
2019-02-24T00:22:53.971Z,98.70
2019-02-24T00:25:22.521Z,98.60
2019-02-24T00:27:51.036Z,98.70
2019-02-24T00:30:19.764Z,98.50
2019-02-24T00:32:48.310Z,98.20
2019-02-24T00:35:16.846Z,98.30
2019-02-24T00:37:45.397Z,98.30
2019-02-24T00:40:14.081Z,98.60
2019-02-24T00:42:42.734Z,98.30
2019-02-24T00:45:11.425Z,98.60
2019-02-24T00:47:39.969Z,98.50
2019-02-24T00:50:09.401Z,98.60
2019-02-24T00:52:37.881Z,98.60
2019-02-24T00:55:07.669Z,98.50
2019-02-24T00:57:36.254Z,98.40
2019-02-24T01:00:07.313Z,98.30
2019-02-24T01:02:35.857Z,98.40
2019-02-24T01:05:05.685Z,98.40
2019-02-24T01:07:34.170Z,98.60
2019-02-24T01:10:03.268Z,98.50
2019-02-24T01:12:31.910Z,98.40
2019-02-24T01:15:00.449Z,98.30
2019-02-24T01:17:28.925Z,98.90
2019-02-24T01:19:57.446Z,98.60
2019-02-24T01:22:25.989Z,98.90
2019-02-24T01:24:54.541Z,98.90
2019-02-24T01:27:23.154Z,99.00
2019-02-24T01:29:51.704Z,99.20
2019-02-24T01:32:20.334Z,99.10
2019-02-24T01:34:48.919Z,98.90
2019-02-24T01:37:17.534Z,98.70
2019-02-24T01:39:46.086Z,98.30
2019-02-24T01:42:14.661Z,98.50
2019-02-24T01:44:43.138Z,98.40
2019-02-24T01:47:11.614Z,98.30
2019-02-24T01:49:40.148Z,98.70
2019-02-24T01:52:09.341Z,98.00
2019-02-24T01:54:37.807Z,97.90
2019-02-24T01:57:06.422Z,98.00
2019-02-24T01:59:35.041Z,98.20
2019-02-24T02:02:03.886Z,98.50
2019-02-24T02:04:32.478Z,98.40
2019-02-24T02:07:01.025Z,98.50
2019-02-24T02:09:29.637Z,98.50
2019-02-24T02:11:58.128Z,98.70
2019-02-24T02:14:26.610Z,98.70
2019-02-24T02:16:55.156Z,98.90
2019-02-24T02:19:23.672Z,98.90
2019-02-24T02:21:52.214Z,98.50
2019-02-24T02:24:20.833Z,98.80
2019-02-24T02:26:49.440Z,98.70
2019-02-24T02:29:17.913Z,98.40
2019-02-24T02:31:46.536Z,98.40
2019-02-24T02:36:49.337Z,98.80
2019-02-24T02:39:17.819Z,98.60
2019-02-24T02:41:47.386Z,98.40
2019-02-24T02:44:16.033Z,98.50
2019-02-24T02:46:44.507Z,98.50
2019-02-24T02:49:13.054Z,98.50
2019-02-24T02:51:41.780Z,98.20
2019-02-24T02:54:10.338Z,98.60
2019-02-24T02:56:38.890Z,98.60
2019-02-24T02:59:07.470Z,98.80
2019-02-24T03:01:36.021Z,98.80
2019-02-24T03:04:04.506Z,98.80
2019-02-24T03:06:34.962Z,98.80
2019-02-24T03:09:05.286Z,98.80
2019-02-24T03:11:33.901Z,98.60
2019-02-24T03:14:02.401Z,98.80
2019-02-24T03:16:31.032Z,98.80
2019-02-24T03:18:59.573Z,98.80
2019-02-24T03:21:28.146Z,98.70
2019-02-24T03:23:56.692Z,98.70
2019-02-24T03:26:25.238Z,98.60
2019-02-24T03:29:03.587Z,98.70
2019-02-24T03:31:24.009Z,99.00
2019-02-24T03:33:52.634Z,99.20
2019-02-24T03:36:21.217Z,99.20
2019-02-24T03:38:49.760Z,99.40
2019-02-24T03:41:18.241Z,99.40
2019-02-24T03:43:47.032Z,99.50
2019-02-24T03:46:15.573Z,99.40
2019-02-24T03:48:44.119Z,99.40
2019-02-24T03:51:12.777Z,99.60
2019-02-24T03:53:41.401Z,99.80
2019-02-24T03:56:10.056Z,99.70
2019-02-24T03:58:38.629Z,99.70
2019-02-24T04:01:07.181Z,99.70
2019-02-24T04:03:35.737Z,99.90
2019-02-24T04:06:04.394Z,99.70
2019-02-24T04:08:32.937Z,99.90
2019-02-24T04:11:01.415Z,99.90
2019-02-24T04:13:30.061Z,99.90
2019-02-24T04:15:58.617Z,99.90
2019-02-24T04:18:27.164Z,99.90
2019-02-24T04:20:55.733Z,99.90
2019-02-24T04:23:24.213Z,99.90
2019-02-24T04:25:52.834Z,99.90
2019-02-24T04:28:21.428Z,99.90
2019-02-24T04:30:49.977Z,99.90
2019-02-24T04:33:18.514Z,99.90
2019-02-24T04:35:47.097Z,99.90
2019-02-24T04:38:16.086Z,99.90
2019-02-24T04:40:44.689Z,99.90
2019-02-24T04:43:13.224Z,99.90
2019-02-24T04:45:41.898Z,99.90
2019-02-24T04:48:10.513Z,99.90
2019-02-24T04:50:39.186Z,99.90
2019-02-24T04:53:07.657Z,99.90
2019-02-24T04:55:36.137Z,99.90
2019-02-24T04:58:04.710Z,99.90
2019-02-24T05:00:33.324Z,99.90
2019-02-24T05:03:01.881Z,99.90
2019-02-24T05:05:30.853Z,99.90
2019-02-24T05:07:59.404Z,99.90
2019-02-24T05:10:27.949Z,99.90
2019-02-24T05:12:56.557Z,99.90
2019-02-24T05:15:25.101Z,99.90
2019-02-24T05:17:53.581Z,99.90
2019-02-24T05:20:22.272Z,99.90
2019-02-24T05:22:50.814Z,99.90
2019-02-24T05:25:19.366Z,99.90
2019-02-24T05:27:47.964Z,99.90
2019-02-24T05:30:16.437Z,99.90
2019-02-24T05:32:44.910Z,99.90
2019-02-24T05:35:13.417Z,99.90
2019-02-24T05:37:41.888Z,99.90
2019-02-24T05:40:10.507Z,99.90
2019-02-24T05:42:39.082Z,99.90
2019-02-24T05:45:07.764Z,99.90
2019-02-24T05:47:36.250Z,99.90
2019-02-24T05:50:06.067Z,99.90
2019-02-24T05:52:34.616Z,99.90
2019-02-24T05:55:03.232Z,99.90
2019-02-24T05:57:31.813Z,99.90
2019-02-24T06:00:00.645Z,99.90
2019-02-24T06:02:29.262Z,99.90
2019-02-24T06:04:57.789Z,99.90
2019-02-24T06:07:26.264Z,99.90
2019-02-24T06:09:54.912Z,99.90
2019-02-24T06:12:23.477Z,99.90
2019-02-24T06:14:52.025Z,99.90
2019-02-24T06:17:20.633Z,99.90
2019-02-24T06:19:49.203Z,99.90
2019-02-24T06:22:17.748Z,99.90
2019-02-24T06:24:46.225Z,99.90
2019-02-24T06:27:14.732Z,99.90
2019-02-24T06:29:43.277Z,99.90
2019-02-24T06:32:11.748Z,99.90
2019-02-24T06:34:40.326Z,99.90
2019-02-24T06:37:08.950Z,99.90
2019-02-24T06:39:37.429Z,99.90
2019-02-24T06:42:05.925Z,99.90
2019-02-24T06:44:34.401Z,99.90
2019-02-24T06:47:02.952Z,99.90
2019-02-24T06:49:31.638Z,99.90
2019-02-24T06:52:00.253Z,99.90
2019-02-24T06:54:28.725Z,99.90
2019-02-24T06:56:57.228Z,99.90
2019-02-24T06:59:25.697Z,99.90
2019-02-24T07:01:54.165Z,99.90
2019-02-24T07:04:22.753Z,99.90
2019-02-24T07:06:51.297Z,99.90
2019-02-24T07:09:19.858Z,99.90
2019-02-24T07:11:48.642Z,99.90
2019-02-24T07:14:17.109Z,99.90
2019-02-24T07:16:45.645Z,99.90
2019-02-24T07:19:14.145Z,99.90
2019-02-24T07:21:42.625Z,99.90
2019-02-24T07:24:11.162Z,99.90
2019-02-24T07:26:39.725Z,99.90
2019-02-24T07:29:08.344Z,99.90
2019-02-24T07:31:36.954Z,99.90
2019-02-24T07:34:05.601Z,99.90
2019-02-24T07:36:34.142Z,99.90
2019-02-24T07:39:02.692Z,99.90
2019-02-24T07:41:31.189Z,99.90
2019-02-24T07:43:59.656Z,99.90
2019-02-24T07:46:29.145Z,99.60
2019-02-24T07:48:57.644Z,99.50
2019-02-24T07:51:26.112Z,99.10
2019-02-24T07:53:54.658Z,98.50
2019-02-24T07:56:23.390Z,98.00
2019-02-24T07:58:51.857Z,97.60
2019-02-24T08:01:20.466Z,97.20
2019-02-24T08:03:48.969Z,96.90
2019-02-24T08:06:17.443Z,96.70
2019-02-24T08:08:46.057Z,95.70
2019-02-24T08:11:14.565Z,96.20
2019-02-24T08:13:44.082Z,96.60
2019-02-24T08:16:12.701Z,95.80
2019-02-24T08:18:49.337Z,95.90
2019-02-24T08:21:11.405Z,96.10
2019-02-24T08:23:39.958Z,96.50
2019-02-24T08:26:08.525Z,96.10
2019-02-24T08:28:37.069Z,96.50
2019-02-24T08:31:05.607Z,96.70
2019-02-24T08:33:34.173Z,97.00
2019-02-24T08:38:44.842Z,96.80
2019-02-24T08:41:13.389Z,97.10
2019-02-24T08:43:41.857Z,96.60
2019-02-24T08:46:10.436Z,96.50
2019-02-24T08:48:38.973Z,96.30
2019-02-24T08:51:07.595Z,94.80
2019-02-24T08:53:36.172Z,94.50
2019-02-24T08:56:04.853Z,94.50
2019-02-24T08:58:33.471Z,94.20
2019-02-24T09:01:02.184Z,92.70
2019-02-24T09:03:30.727Z,92.30
2019-02-24T09:05:59.278Z,92.40
2019-02-24T09:08:27.845Z,92.20
2019-02-24T09:10:56.316Z,92.30
2019-02-24T09:13:24.856Z,92.20
2019-02-24T09:15:53.518Z,91.10
2019-02-24T09:18:22.021Z,91.10
2019-02-24T09:20:50.561Z,91.10
2019-02-24T09:23:19.401Z,91.20
2019-02-24T09:25:47.958Z,89.00
2019-02-24T09:28:16.496Z,90.40
2019-02-24T09:30:44.996Z,90.50
2019-02-24T09:33:13.539Z,89.00
2019-02-24T09:35:42.083Z,88.20
2019-02-24T09:38:10.588Z,87.80
2019-02-24T09:40:39.241Z,88.70
2019-02-24T09:43:07.777Z,87.10
2019-02-24T09:45:36.282Z,85.10
2019-02-24T09:48:04.897Z,83.90
2019-02-24T09:50:33.441Z,82.60
2019-02-24T09:53:01.970Z,82.30
2019-02-24T09:55:30.517Z,84.50
2019-02-24T09:57:59.066Z,81.70
2019-02-24T10:00:27.644Z,81.40
2019-02-24T10:02:57.584Z,83.00
2019-02-24T10:05:26.454Z,81.50
2019-02-24T10:07:55.024Z,82.90
2019-02-24T10:10:23.685Z,82.90
2019-02-24T10:12:52.383Z,82.50
2019-02-24T10:15:21.179Z,81.60
2019-02-24T10:17:49.791Z,80.70
2019-02-24T10:20:18.424Z,81.50
2019-02-24T10:22:47.219Z,78.70
2019-02-24T10:25:15.763Z,75.30
2019-02-24T10:27:44.320Z,75.10
2019-02-24T10:30:14.325Z,61.70
2019-02-24T10:32:42.941Z,62.90
2019-02-24T10:35:11.576Z,63.10
2019-02-24T10:37:40.229Z,57.20
2019-02-24T10:40:13.983Z,53.50
2019-02-24T10:42:42.553Z,53.10
2019-02-24T10:45:13.468Z,52.70
2019-02-24T10:47:42.017Z,55.50
2019-02-24T10:50:17.249Z,51.70
2019-02-24T10:52:45.958Z,52.40
2019-02-24T10:55:14.725Z,51.10
2019-02-24T10:57:43.383Z,51.80
2019-02-24T11:00:20.057Z,54.10
2019-02-24T11:02:48.718Z,55.50
2019-02-24T11:05:17.429Z,53.80
2019-02-24T11:07:46.063Z,56.40
2019-02-24T11:10:14.776Z,54.70
2019-02-24T11:12:43.400Z,56.00
2019-02-24T11:15:13.088Z,57.90
2019-02-24T11:17:41.740Z,58.10
2019-02-24T11:20:15.411Z,56.20
2019-02-24T11:22:43.973Z,57.50
2019-02-24T11:25:12.883Z,56.80
2019-02-24T11:27:41.586Z,56.50
2019-02-24T11:30:12.641Z,54.80
2019-02-24T11:32:41.393Z,52.00
2019-02-24T11:35:11.280Z,51.60
2019-02-24T11:37:39.881Z,51.30
2019-02-24T11:40:10.736Z,52.20
2019-02-24T11:42:39.646Z,50.60
2019-02-24T11:45:09.440Z,49.70
2019-02-24T11:47:38.177Z,50.00
2019-02-24T11:50:09.741Z,48.90
2019-02-24T11:52:38.352Z,48.30
2019-02-24T11:55:08.477Z,48.50
2019-02-24T11:57:37.182Z,43.90
2019-02-24T12:00:14.468Z,40.50
2019-02-24T12:02:43.075Z,38.80
2019-02-24T12:05:11.773Z,37.50
2019-02-24T12:07:40.438Z,37.80
2019-02-24T12:10:12.534Z,40.70
2019-02-24T12:12:41.224Z,41.50
2019-02-24T12:15:11.545Z,40.30
2019-02-24T12:17:40.230Z,40.80
2019-02-24T12:20:11.613Z,41.10
2019-02-24T12:22:40.336Z,39.70
2019-02-24T12:25:10.286Z,40.80
2019-02-24T12:27:38.934Z,41.70
2019-02-24T12:30:13.427Z,41.70
2019-02-24T12:32:42.098Z,42.00
2019-02-24T12:35:10.789Z,43.30
2019-02-24T12:37:39.519Z,44.00
2019-02-24T12:40:09.802Z,45.30
2019-02-24T12:42:38.410Z,43.80
2019-02-24T12:45:09.755Z,43.30
2019-02-24T12:47:38.387Z,43.30
2019-02-24T12:50:12.102Z,43.70
2019-02-24T12:52:40.822Z,44.30
2019-02-24T12:55:09.807Z,45.40
2019-02-24T12:57:38.595Z,44.90
2019-02-24T13:00:19.128Z,46.00
2019-02-24T13:02:47.868Z,46.40
2019-02-24T13:05:16.457Z,47.00
2019-02-24T13:07:45.062Z,47.20
2019-02-24T13:10:17.594Z,47.60
2019-02-24T13:12:46.224Z,48.30
2019-02-24T13:15:14.875Z,47.70
2019-02-24T13:17:43.561Z,48.80
2019-02-24T13:20:12.291Z,50.70
2019-02-24T13:22:41.055Z,50.30
2019-02-24T13:25:11.463Z,51.60
2019-02-24T13:27:40.166Z,51.10
2019-02-24T13:30:14.173Z,52.40
2019-02-24T13:32:42.865Z,50.90
2019-02-24T13:35:11.550Z,52.50
2019-02-24T13:37:40.116Z,52.40
2019-02-24T13:40:10.830Z,52.00
2019-02-24T13:42:39.517Z,51.50
2019-02-24T13:45:13.359Z,52.00
2019-02-24T13:47:41.991Z,53.00
2019-02-24T13:50:10.686Z,52.80
2019-02-24T13:52:39.424Z,51.90
2019-02-24T13:55:10.821Z,50.50
2019-02-24T13:57:39.523Z,51.60
2019-02-24T14:00:11.262Z,52.20
2019-02-24T14:02:39.819Z,50.60
2019-02-24T14:05:11.499Z,50.00
2019-02-24T14:07:40.287Z,49.20
2019-02-24T14:10:11.688Z,46.50
2019-02-24T14:12:40.403Z,45.90
2019-02-24T14:15:11.336Z,45.70
2019-02-24T14:17:39.943Z,43.80
2019-02-24T14:20:13.511Z,43.60
2019-02-24T14:22:42.799Z,42.80
2019-02-24T14:25:15.704Z,42.90
2019-02-24T14:27:49.522Z,43.40
2019-02-24T14:30:29.375Z,43.30
2019-02-24T14:32:59.748Z,44.70
2019-02-24T14:35:32.791Z,44.30
2019-02-24T14:38:03.219Z,44.40
2019-02-24T14:40:34.949Z,44.00
2019-02-24T14:43:03.465Z,41.70
2019-02-24T14:45:32.140Z,40.90
2019-02-24T14:48:03.978Z,43.00
2019-02-24T14:50:32.698Z,44.20
2019-02-24T14:53:01.390Z,44.50
2019-02-24T14:55:30.120Z,44.60
2019-02-24T14:57:58.750Z,45.00
2019-02-24T15:00:27.360Z,44.40
2019-02-24T15:02:56.005Z,44.30
2019-02-24T15:05:24.695Z,44.80
2019-02-24T15:08:28.971Z,46.10
2019-02-24T15:10:57.667Z,47.00
2019-02-24T15:13:26.225Z,47.80
2019-02-24T15:15:54.814Z,47.70
2019-02-24T15:18:23.442Z,47.90
2019-02-24T15:20:51.915Z,49.30
2019-02-24T15:23:20.568Z,48.90
2019-02-24T15:25:49.263Z,49.40
2019-02-24T15:28:17.954Z,49.50
2019-02-24T15:30:46.630Z,50.50
2019-02-24T15:33:15.246Z,50.10
2019-02-24T15:35:49.418Z,51.50
2019-02-24T15:38:56.284Z,52.80
2019-02-24T15:41:29.681Z,54.40
2019-02-24T15:43:55.308Z,56.50
2019-02-24T15:46:23.947Z,59.30
2019-02-24T15:48:53.126Z,61.00
2019-02-24T15:51:21.837Z,62.70
2019-02-24T15:53:50.544Z,63.30
2019-02-24T15:56:19.196Z,64.60
2019-02-24T15:58:47.766Z,66.80
2019-02-24T16:01:16.397Z,69.00
2019-02-24T16:03:44.957Z,71.80
2019-02-24T16:06:13.616Z,73.10
2019-02-24T16:08:42.167Z,73.60
2019-02-24T16:11:10.862Z,73.90
2019-02-24T16:13:39.530Z,75.40
2019-02-24T16:16:08.163Z,74.90
2019-02-24T16:18:36.790Z,75.30
2019-02-24T16:21:05.586Z,74.50
2019-02-24T16:23:34.129Z,74.00
2019-02-24T16:26:02.750Z,74.10
2019-02-24T16:28:31.336Z,72.30
2019-02-24T16:30:59.890Z,73.10
2019-02-24T16:33:28.610Z,72.50
2019-02-24T16:35:57.320Z,72.50
2019-02-24T16:38:25.950Z,72.20
2019-02-24T16:40:54.506Z,72.30
2019-02-24T16:43:23.535Z,71.80
2019-02-24T16:45:52.080Z,72.50
2019-02-24T16:48:20.629Z,72.70
2019-02-24T16:50:49.218Z,73.80
2019-02-24T16:53:17.923Z,73.90
2019-02-24T16:55:46.555Z,74.80
2019-02-24T16:58:15.159Z,75.50
2019-02-24T17:00:44.039Z,76.90
2019-02-24T17:03:19.608Z,76.80
2019-02-24T17:05:43.123Z,78.20
2019-02-24T17:08:11.682Z,78.90
2019-02-24T17:11:07.134Z,79.80
2019-02-24T17:13:36.028Z,80.60
2019-02-24T17:16:04.663Z,81.70
2019-02-24T17:18:34.013Z,81.80
2019-02-24T17:21:02.702Z,82.10
2019-02-24T17:23:31.373Z,82.10
2019-02-24T17:26:00.018Z,82.00
2019-02-24T17:28:28.645Z,81.60
2019-02-24T17:30:57.420Z,82.00
2019-02-24T17:33:29.945Z,83.10
2019-02-24T17:35:56.150Z,83.20
2019-02-24T17:38:24.876Z,83.70
2019-02-24T17:40:56.442Z,84.20
2019-02-24T17:43:25.013Z,84.90
2019-02-24T17:45:53.829Z,85.90
2019-02-24T17:48:22.388Z,86.30
2019-02-24T17:50:50.942Z,87.00
2019-02-24T17:53:19.518Z,87.00
2019-02-24T17:55:48.144Z,86.70
2019-02-24T17:58:16.836Z,86.80
2019-02-24T18:00:47.138Z,87.00
2019-02-24T18:03:15.882Z,87.10
2019-02-24T18:05:44.498Z,87.00
2019-02-24T18:08:13.151Z,87.10
2019-02-24T18:10:41.743Z,87.00
2019-02-24T18:13:10.323Z,87.00
2019-02-24T18:15:39.895Z,87.30
2019-02-24T18:18:08.442Z,87.00
2019-02-24T18:20:37.158Z,88.10
2019-02-24T18:23:05.872Z,88.70
2019-02-24T18:25:34.414Z,88.90
2019-02-24T18:28:03.214Z,89.40
2019-02-24T18:30:31.960Z,89.80
2019-02-24T18:33:00.699Z,90.10
2019-02-24T18:35:30.804Z,90.60
2019-02-24T18:37:59.392Z,90.80
2019-02-24T18:40:28.112Z,90.80
2019-02-24T18:43:00.183Z,90.90
2019-02-24T18:45:27.277Z,90.80
2019-02-24T18:47:55.970Z,90.70
2019-02-24T18:50:24.600Z,90.70
2019-02-24T18:52:53.187Z,90.50
2019-02-24T18:55:21.803Z,90.40
2019-02-24T18:57:50.504Z,90.30
2019-02-24T19:00:21.201Z,88.60
2019-02-24T19:02:49.827Z,87.30
2019-02-24T19:05:18.876Z,86.10
2019-02-24T19:07:47.544Z,83.80
2019-02-24T19:10:21.564Z,82.90
2019-02-24T19:12:50.582Z,81.60
2019-02-24T19:15:20.798Z,80.20
2019-02-24T19:17:49.501Z,79.10
2019-02-24T19:20:22.069Z,79.20
2019-02-24T19:22:50.739Z,79.20
2019-02-24T19:25:19.356Z,76.90
2019-02-24T19:27:48.062Z,75.30
2019-02-24T19:30:17.685Z,77.10
2019-02-24T19:32:46.797Z,77.40
2019-02-24T19:35:16.299Z,77.10
2019-02-24T19:37:45.062Z,77.20
2019-02-24T19:40:18.668Z,77.80
2019-02-24T19:42:47.367Z,78.00
2019-02-24T19:45:21.142Z,78.00
2019-02-24T19:47:49.618Z,79.00
2019-02-24T19:50:18.609Z,80.10
2019-02-24T19:52:47.350Z,80.40
2019-02-24T19:55:17.202Z,81.20
2019-02-24T19:57:46.068Z,81.30
2019-02-24T20:00:19.582Z,81.90
2019-02-24T20:02:48.324Z,82.40
2019-02-24T20:05:17.001Z,83.00
2019-02-24T20:07:45.726Z,82.80
2019-02-24T20:10:16.883Z,83.20
2019-02-24T20:12:45.574Z,83.30
2019-02-24T20:15:17.341Z,84.20
2019-02-24T20:17:46.042Z,84.40
2019-02-24T20:20:16.037Z,85.40
2019-02-24T20:22:44.681Z,86.00
2019-02-24T20:25:15.766Z,86.40
2019-02-24T20:27:44.464Z,86.60
2019-02-24T20:30:30.323Z,87.30
2019-02-24T20:32:58.874Z,87.80
2019-02-24T20:35:27.565Z,88.00
2019-02-24T20:37:56.294Z,87.80
2019-02-24T20:40:24.911Z,88.00
2019-02-24T20:42:53.529Z,88.30
2019-02-24T20:45:23.276Z,88.40
2019-02-24T20:47:52.000Z,88.40
2019-02-24T20:50:22.289Z,88.50
2019-02-24T20:53:02.058Z,88.60
2019-02-24T20:55:30.610Z,89.30
2019-02-24T20:57:59.158Z,89.70
2019-02-24T21:00:36.973Z,89.50
2019-02-24T21:03:05.622Z,90.10
2019-02-24T21:05:34.205Z,90.20
2019-02-24T21:08:02.850Z,90.30
2019-02-24T21:10:31.543Z,90.60
2019-02-24T21:13:00.233Z,91.00
2019-02-24T21:15:28.815Z,91.80
2019-02-24T21:17:57.435Z,91.60
2019-02-24T21:20:30.457Z,91.90
2019-02-24T21:22:59.130Z,92.00
2019-02-24T21:25:27.801Z,92.10
2019-02-24T21:27:56.431Z,92.10
2019-02-24T21:30:25.243Z,92.30
2019-02-24T21:32:53.927Z,92.70
2019-02-24T21:35:22.629Z,92.80
2019-02-24T21:37:51.344Z,92.80
2019-02-24T21:40:20.432Z,92.90
2019-02-24T21:42:48.990Z,92.90
2019-02-24T21:45:23.164Z,92.60
2019-02-24T21:47:51.850Z,92.50
2019-02-24T21:50:20.393Z,92.60
2019-02-24T21:52:48.966Z,92.60
2019-02-24T21:55:17.659Z,92.50
2019-02-24T21:57:46.356Z,92.30
2019-02-24T22:00:17.750Z,92.20
2019-02-24T22:02:46.446Z,92.30
2019-02-24T22:05:15.135Z,92.30
2019-02-24T22:07:43.723Z,92.50
2019-02-24T22:10:16.302Z,92.50
2019-02-24T22:12:44.855Z,92.60
2019-02-24T22:15:24.271Z,92.90
2019-02-24T22:17:52.822Z,92.80
2019-02-24T22:20:21.448Z,92.80
2019-02-24T22:22:50.157Z,92.80
2019-02-24T22:25:18.710Z,92.70
2019-02-24T22:27:47.390Z,93.00
2019-02-24T22:30:22.957Z,92.70
2019-02-24T22:32:51.498Z,92.80
2019-02-24T22:35:20.041Z,92.90
2019-02-24T22:37:48.750Z,92.90
2019-02-24T22:40:17.535Z,93.00
2019-02-24T22:42:46.317Z,93.00
2019-02-24T22:45:17.300Z,93.00
2019-02-24T22:47:45.945Z,93.00
2019-02-24T22:50:15.119Z,93.00
2019-02-24T22:52:44.140Z,92.80
2019-02-24T22:55:17.254Z,92.80
2019-02-24T22:57:45.939Z,93.00
2019-02-24T23:00:30.805Z,92.80
2019-02-24T23:02:59.417Z,93.10
2019-02-24T23:05:28.093Z,93.20
2019-02-24T23:07:56.654Z,92.90
2019-02-24T23:10:25.333Z,93.20
2019-02-24T23:12:53.801Z,93.30
2019-02-24T23:15:22.442Z,93.50
2019-02-24T23:17:50.982Z,93.60
2019-02-24T23:20:19.595Z,93.70
2019-02-24T23:22:48.348Z,93.80
2019-02-24T23:25:16.887Z,93.80
2019-02-24T23:27:45.497Z,93.90
2019-02-24T23:30:14.206Z,94.10
2019-02-24T23:32:42.666Z,94.20
2019-02-24T23:35:11.201Z,94.30
2019-02-24T23:37:39.761Z,94.30
2019-02-24T23:40:09.170Z,94.30
2019-02-24T23:42:37.703Z,94.50
2019-02-24T23:45:10.635Z,94.50
2019-02-24T23:47:39.082Z,94.60
2019-02-24T23:50:09.850Z,94.50
2019-02-24T23:52:38.484Z,94.70
2019-02-24T23:55:07.990Z,94.80
2019-02-24T23:57:36.524Z,94.90
